Wednesday, September 17, 2014
11:37 UTC
  |  Log In   |  Register Free
Airport Search:

Enid Woodring Regional Airport
(KWDG)

FAA data valid effective July 24, 2014 until September 18, 2014 (unless otherwise noted).

 
 
 
 
 
 
 
 
 
 
 
 
 
 

Current Aviation Weather for Enid Woodring Regional Airport (KWDG)

The most recent METAR observation for KWDG was updated at: 1120
METAR Summary (Translated METAR)
KWDG
171055Z AUTO 17005KT 4SM BR CLR 18/18 A2993 RMK AO2
KEND
171056Z 18009KT 10SM CLR 21/21 A2993 RMK AO2A SLP126
(6.6 nm SW from KWDG)
KBKN
171055Z AUTO 00000KT 2SM BR BKN002 18/18 A2992 RMK AO2
(30.5 nm NE from KWDG)
TAF Summary (Translated TAF)
KEND
(6.6 nm SW from KWDG)
1710/1816 18009KT 9000 BR SKC QNH2993INS BECMG 1712/1713 20012KT 9999 NSW FEW030 QNH2992INS BECMG 1715/1716 23015KT 9999 FEW250 QNH2989INS BECMG 1802/1803 17009KT 9999 SCT180 BKN220 QNH2987INS BECMG 1809/1810 14009KT 9999 BKN015 BKN220 QNH2985INS BECMG 1815/1816 15012KT 9999 SCT030 QNH2990INS TX28/1721Z TN19/1712Z
  Airport Weather Conditions for KWDG

 Current Weather at WDG
66° F
Fog/Mist
South winds at 4.6 mph
WDG NOAA Radar

Pressure: 29.94 in
Humidity: 100%
Wind: South at 4.6 MPH (4 KT)
Dew Point: 66.2°F
Visibility: 4.00 mi


Airport Weather Forecast for KWDG

Translated METAR and TAF for KWDG
Translated METAR for KWDG (1132 UTC 17 September 2014)
found at http://aviationweather.gov/adds/metars/
 
METAR text: KWDG 171115Z 16005KT 7SM SCT130 19/19 A2992 RMK FIRST
Conditions at: KWDG (ENID/WOODRING , OK, US) observed 1115 UTC 17 September 2014
Temperature: 19.0°C (66°F)
Dewpoint: 19.0°C (66°F) [RH = 100%]
Pressure (altimeter): 29.92 inches Hg (1013.3 mb)
Winds: from the SSE (160 degrees) at 6 MPH (5 knots; 2.6 m/s)
Visibility: 7 miles (11 km)
Ceiling: at least 12,000 feet AGL
Clouds: scattered clouds at 13000 feet AGL
Weather: no significant weather observed at this time
Translated TAF for KWDG

There is no translated TAF available for this airport

Find All Airport Services Find A Hotel Find A Rental Car Find A Golf Course Find A Restaurant $100 Hamburger



FBO's on the Field
FBO Company Facility Photos Services Transportation Aviation Fuel Prices: Prices include tax
Catering Weather Repair Courtesy Rental Type 100LL JetA JetA+ MOGAS 8087
 
Enid Woodring Regional Airport

This FBO has not yet been rated
FS:Phillips66
Last Updated: Sep-09
Login to update fuel prices
SS:
Contact Enid Woodring Regional AirportMore FBO Information
 
Add another FBO Facility Photos Catering Weather Repair Courtesy Rental Type 100LL JetA JetA+ MOGAS 8087
Services Transportation Aviation Fuel Prices: Prices include tax


model-print
model-print
model-print
model-print